sensor_id;sensor_type;location;lat;lon;timestamp;P1;durP1;ratioP1;P2;durP2;ratioP2
4565;SDS011;2295;51.050;14.608;2023-08-21T00:00:32;9.50;;;8.10;;
4565;SDS011;2295;51.050;14.608;2023-08-21T00:03:01;10.90;;;7.37;;
4565;SDS011;2295;51.050;14.608;2023-08-21T00:05:29;9.43;;;7.47;;
4565;SDS011;2295;51.050;14.608;2023-08-21T00:07:59;10.60;;;7.77;;
4565;SDS011;2295;51.050;14.608;2023-08-21T00:10:27;10.17;;;7.63;;
4565;SDS011;2295;51.050;14.608;2023-08-21T00:12:57;12.13;;;7.53;;
4565;SDS011;2295;51.050;14.608;2023-08-21T00:15:25;13.67;;;7.57;;
4565;SDS011;2295;51.050;14.608;2023-08-21T00:17:53;9.50;;;7.53;;
4565;SDS011;2295;51.050;14.608;2023-08-21T00:20:22;10.00;;;7.60;;
4565;SDS011;2295;51.050;14.608;2023-08-21T00:22:50;19.80;;;7.10;;
4565;SDS011;2295;51.050;14.608;2023-08-21T00:25:20;11.73;;;6.73;;
4565;SDS011;2295;51.050;14.608;2023-08-21T00:27:49;8.70;;;6.90;;
4565;SDS011;2295;51.050;14.608;2023-08-21T00:30:17;9.23;;;6.77;;
4565;SDS011;2295;51.050;14.608;2023-08-21T00:32:45;10.50;;;7.10;;
4565;SDS011;2295;51.050;14.608;2023-08-21T00:35:14;8.60;;;6.30;;
4565;SDS011;2295;51.050;14.608;2023-08-21T00:37:42;7.27;;;6.53;;
4565;SDS011;2295;51.050;14.608;2023-08-21T00:40:10;6.50;;;5.70;;
4565;SDS011;2295;51.050;14.608;2023-08-21T00:42:40;7.50;;;6.83;;
4565;SDS011;2295;51.050;14.608;2023-08-21T00:45:09;10.07;;;6.43;;
4565;SDS011;2295;51.050;14.608;2023-08-21T00:47:37;8.53;;;6.87;;
4565;SDS011;2295;51.050;14.608;2023-08-21T00:50:06;7.20;;;6.50;;
4565;SDS011;2295;51.050;14.608;2023-08-21T00:52:38;8.17;;;7.20;;
4565;SDS011;2295;51.050;14.608;2023-08-21T00:55:07;14.43;;;8.20;;
4565;SDS011;2295;51.050;14.608;2023-08-21T00:57:36;7.97;;;6.67;;
4565;SDS011;2295;51.050;14.608;2023-08-21T01:00:07;9.20;;;7.23;;
4565;SDS011;2295;51.050;14.608;2023-08-21T01:02:37;10.50;;;6.53;;
4565;SDS011;2295;51.050;14.608;2023-08-21T01:05:11;8.00;;;6.83;;
4565;SDS011;2295;51.050;14.608;2023-08-21T01:07:42;10.50;;;7.40;;
4565;SDS011;2295;51.050;14.608;2023-08-21T01:10:19;11.40;;;7.07;;
4565;SDS011;2295;51.050;14.608;2023-08-21T01:12:55;10.43;;;7.43;;
4565;SDS011;2295;51.050;14.608;2023-08-21T01:15:30;11.83;;;7.30;;
4565;SDS011;2295;51.050;14.608;2023-08-21T01:17:59;7.97;;;7.03;;
4565;SDS011;2295;51.050;14.608;2023-08-21T01:20:28;10.63;;;6.97;;
4565;SDS011;2295;51.050;14.608;2023-08-21T01:22:57;9.23;;;7.57;;
4565;SDS011;2295;51.050;14.608;2023-08-21T01:25:32;9.17;;;7.27;;
4565;SDS011;2295;51.050;14.608;2023-08-21T01:28:00;11.00;;;7.23;;
4565;SDS011;2295;51.050;14.608;2023-08-21T01:30:29;10.77;;;6.90;;
4565;SDS011;2295;51.050;14.608;2023-08-21T01:33:01;7.33;;;6.63;;
4565;SDS011;2295;51.050;14.608;2023-08-21T01:35:33;8.47;;;7.50;;
4565;SDS011;2295;51.050;14.608;2023-08-21T01:38:03;8.50;;;6.80;;
4565;SDS011;2295;51.050;14.608;2023-08-21T01:40:33;10.67;;;7.87;;
4565;SDS011;2295;51.050;14.608;2023-08-21T01:43:01;8.00;;;7.20;;
4565;SDS011;2295;51.050;14.608;2023-08-21T01:45:29;8.07;;;7.20;;
4565;SDS011;2295;51.050;14.608;2023-08-21T01:47:58;9.90;;;7.60;;
4565;SDS011;2295;51.050;14.608;2023-08-21T01:50:27;8.53;;;7.57;;
4565;SDS011;2295;51.050;14.608;2023-08-21T01:52:55;8.13;;;6.93;;
4565;SDS011;2295;51.050;14.608;2023-08-21T01:55:23;8.50;;;7.60;;
4565;SDS011;2295;51.050;14.608;2023-08-21T01:57:53;8.90;;;7.57;;
4565;SDS011;2295;51.050;14.608;2023-08-21T02:00:21;9.60;;;8.30;;
4565;SDS011;2295;51.050;14.608;2023-08-21T02:02:50;9.17;;;8.27;;
4565;SDS011;2295;51.050;14.608;2023-08-21T02:05:18;13.10;;;9.17;;
4565;SDS011;2295;51.050;14.608;2023-08-21T02:07:46;10.73;;;8.83;;
4565;SDS011;2295;51.050;14.608;2023-08-21T02:10:14;11.70;;;8.70;;
4565;SDS011;2295;51.050;14.608;2023-08-21T02:12:43;15.03;;;8.87;;
4565;SDS011;2295;51.050;14.608;2023-08-21T02:15:13;9.43;;;8.33;;
4565;SDS011;2295;51.050;14.608;2023-08-21T02:17:41;9.27;;;8.30;;
4565;SDS011;2295;51.050;14.608;2023-08-21T02:20:10;11.30;;;8.30;;
4565;SDS011;2295;51.050;14.608;2023-08-21T02:22:39;9.73;;;8.73;;
4565;SDS011;2295;51.050;14.608;2023-08-21T02:25:07;14.20;;;8.40;;
4565;SDS011;2295;51.050;14.608;2023-08-21T02:27:35;11.10;;;8.60;;
4565;SDS011;2295;51.050;14.608;2023-08-21T02:30:04;12.50;;;9.37;;
4565;SDS011;2295;51.050;14.608;2023-08-21T02:32:35;10.70;;;9.23;;
4565;SDS011;2295;51.050;14.608;2023-08-21T02:35:05;10.73;;;8.50;;
4565;SDS011;2295;51.050;14.608;2023-08-21T02:37:34;11.63;;;9.03;;
4565;SDS011;2295;51.050;14.608;2023-08-21T02:40:06;12.80;;;8.50;;
4565;SDS011;2295;51.050;14.608;2023-08-21T02:42:35;8.60;;;7.70;;
4565;SDS011;2295;51.050;14.608;2023-08-21T02:45:04;12.33;;;8.97;;
4565;SDS011;2295;51.050;14.608;2023-08-21T02:47:37;14.80;;;9.10;;
4565;SDS011;2295;51.050;14.608;2023-08-21T02:50:06;10.07;;;8.40;;
4565;SDS011;2295;51.050;14.608;2023-08-21T02:52:36;11.73;;;8.07;;
4565;SDS011;2295;51.050;14.608;2023-08-21T02:55:06;10.60;;;8.50;;
4565;SDS011;2295;51.050;14.608;2023-08-21T02:57:34;10.77;;;8.60;;
4565;SDS011;2295;51.050;14.608;2023-08-21T03:00:03;10.47;;;8.70;;
4565;SDS011;2295;51.050;14.608;2023-08-21T03:02:33;11.87;;;8.90;;
4565;SDS011;2295;51.050;14.608;2023-08-21T03:05:03;10.70;;;7.93;;
4565;SDS011;2295;51.050;14.608;2023-08-21T03:07:31;12.83;;;8.60;;
4565;SDS011;2295;51.050;14.608;2023-08-21T03:09:59;13.70;;;8.20;;
4565;SDS011;2295;51.050;14.608;2023-08-21T03:12:28;10.77;;;8.70;;
4565;SDS011;2295;51.050;14.608;2023-08-21T03:14:56;11.23;;;7.80;;
4565;SDS011;2295;51.050;14.608;2023-08-21T03:17:24;10.50;;;8.80;;
4565;SDS011;2295;51.050;14.608;2023-08-21T03:19:53;13.57;;;9.43;;
4565;SDS011;2295;51.050;14.608;2023-08-21T03:22:22;11.80;;;8.80;;
4565;SDS011;2295;51.050;14.608;2023-08-21T03:24:51;9.00;;;7.97;;
4565;SDS011;2295;51.050;14.608;2023-08-21T03:27:19;13.43;;;8.03;;
4565;SDS011;2295;51.050;14.608;2023-08-21T03:29:47;12.43;;;8.63;;
4565;SDS011;2295;51.050;14.608;2023-08-21T03:32:15;12.67;;;9.57;;
4565;SDS011;2295;51.050;14.608;2023-08-21T03:34:44;13.13;;;10.60;;
4565;SDS011;2295;51.050;14.608;2023-08-21T03:37:12;12.33;;;9.27;;
4565;SDS011;2295;51.050;14.608;2023-08-21T03:39:42;11.93;;;9.93;;
4565;SDS011;2295;51.050;14.608;2023-08-21T03:42:11;12.43;;;8.53;;
4565;SDS011;2295;51.050;14.608;2023-08-21T03:44:39;13.43;;;9.43;;
4565;SDS011;2295;51.050;14.608;2023-08-21T03:47:07;15.00;;;10.20;;
4565;SDS011;2295;51.050;14.608;2023-08-21T03:49:36;14.20;;;10.23;;
4565;SDS011;2295;51.050;14.608;2023-08-21T03:52:04;10.57;;;8.90;;
4565;SDS011;2295;51.050;14.608;2023-08-21T03:54:33;10.90;;;8.80;;
4565;SDS011;2295;51.050;14.608;2023-08-21T03:57:02;12.33;;;9.83;;
4565;SDS011;2295;51.050;14.608;2023-08-21T03:59:31;12.17;;;9.47;;
4565;SDS011;2295;51.050;14.608;2023-08-21T04:01:59;11.13;;;9.60;;
4565;SDS011;2295;51.050;14.608;2023-08-21T04:04:27;15.73;;;10.17;;
4565;SDS011;2295;51.050;14.608;2023-08-21T04:06:56;18.13;;;10.60;;
4565;SDS011;2295;51.050;14.608;2023-08-21T04:09:24;13.23;;;9.40;;
4565;SDS011;2295;51.050;14.608;2023-08-21T04:11:52;11.60;;;8.77;;
4565;SDS011;2295;51.050;14.608;2023-08-21T04:14:22;14.53;;;9.10;;
4565;SDS011;2295;51.050;14.608;2023-08-21T04:16:50;12.40;;;9.30;;
4565;SDS011;2295;51.050;14.608;2023-08-21T04:19:18;14.13;;;9.37;;
4565;SDS011;2295;51.050;14.608;2023-08-21T04:21:46;11.80;;;9.13;;
4565;SDS011;2295;51.050;14.608;2023-08-21T04:24:15;15.27;;;10.03;;
4565;SDS011;2295;51.050;14.608;2023-08-21T04:26:43;12.67;;;10.00;;
4565;SDS011;2295;51.050;14.608;2023-08-21T04:29:11;11.93;;;9.80;;
4565;SDS011;2295;51.050;14.608;2023-08-21T04:31:41;17.60;;;11.23;;
4565;SDS011;2295;51.050;14.608;2023-08-21T04:34:09;38.20;;;14.57;;
4565;SDS011;2295;51.050;14.608;2023-08-21T04:36:38;22.17;;;10.57;;
4565;SDS011;2295;51.050;14.608;2023-08-21T04:39:06;17.80;;;10.17;;
4565;SDS011;2295;51.050;14.608;2023-08-21T04:41:35;15.50;;;11.10;;
4565;SDS011;2295;51.050;14.608;2023-08-21T04:44:03;14.67;;;10.93;;
4565;SDS011;2295;51.050;14.608;2023-08-21T04:46:31;14.77;;;9.87;;
4565;SDS011;2295;51.050;14.608;2023-08-21T04:49:01;13.33;;;10.50;;
4565;SDS011;2295;51.050;14.608;2023-08-21T04:51:29;19.83;;;12.90;;
4565;SDS011;2295;51.050;14.608;2023-08-21T04:53:58;19.03;;;13.53;;
4565;SDS011;2295;51.050;14.608;2023-08-21T04:56:26;21.80;;;14.50;;
4565;SDS011;2295;51.050;14.608;2023-08-21T04:58:55;17.93;;;14.80;;
4565;SDS011;2295;51.050;14.608;2023-08-21T05:01:23;21.63;;;14.40;;
4565;SDS011;2295;51.050;14.608;2023-08-21T05:03:51;20.73;;;14.30;;
4565;SDS011;2295;51.050;14.608;2023-08-21T05:06:22;17.13;;;13.83;;
4565;SDS011;2295;51.050;14.608;2023-08-21T05:08:50;17.73;;;13.30;;
4565;SDS011;2295;51.050;14.608;2023-08-21T05:11:18;17.57;;;13.90;;
4565;SDS011;2295;51.050;14.608;2023-08-21T05:13:47;16.93;;;13.07;;
4565;SDS011;2295;51.050;14.608;2023-08-21T05:16:15;21.73;;;17.30;;
4565;SDS011;2295;51.050;14.608;2023-08-21T05:18:43;25.20;;;17.53;;
4565;SDS011;2295;51.050;14.608;2023-08-21T05:21:11;24.30;;;17.73;;
4565;SDS011;2295;51.050;14.608;2023-08-21T05:23:41;24.97;;;16.63;;
4565;SDS011;2295;51.050;14.608;2023-08-21T05:26:09;26.13;;;17.80;;
4565;SDS011;2295;51.050;14.608;2023-08-21T05:28:37;28.53;;;21.67;;
4565;SDS011;2295;51.050;14.608;2023-08-21T05:31:06;34.33;;;22.67;;
4565;SDS011;2295;51.050;14.608;2023-08-21T05:33:34;29.73;;;20.10;;
4565;SDS011;2295;51.050;14.608;2023-08-21T05:36:02;29.87;;;20.70;;
4565;SDS011;2295;51.050;14.608;2023-08-21T05:38:31;32.50;;;23.10;;
4565;SDS011;2295;51.050;14.608;2023-08-21T05:41:01;38.13;;;23.97;;
4565;SDS011;2295;51.050;14.608;2023-08-21T05:43:29;35.57;;;24.63;;
4565;SDS011;2295;51.050;14.608;2023-08-21T05:45:57;46.60;;;26.67;;
4565;SDS011;2295;51.050;14.608;2023-08-21T05:48:26;41.50;;;25.17;;
4565;SDS011;2295;51.050;14.608;2023-08-21T05:50:54;38.10;;;24.50;;
4565;SDS011;2295;51.050;14.608;2023-08-21T05:53:23;51.13;;;25.63;;
4565;SDS011;2295;51.050;14.608;2023-08-21T05:55:51;39.63;;;24.63;;
4565;SDS011;2295;51.050;14.608;2023-08-21T05:58:21;36.97;;;22.53;;
4565;SDS011;2295;51.050;14.608;2023-08-21T06:00:50;35.00;;;21.97;;
4565;SDS011;2295;51.050;14.608;2023-08-21T06:03:18;33.87;;;23.60;;
4565;SDS011;2295;51.050;14.608;2023-08-21T06:05:47;50.67;;;24.83;;
4565;SDS011;2295;51.050;14.608;2023-08-21T06:08:15;29.97;;;22.03;;
4565;SDS011;2295;51.050;14.608;2023-08-21T06:10:44;34.70;;;23.83;;
4565;SDS011;2295;51.050;14.608;2023-08-21T06:13:13;38.83;;;24.27;;
4565;SDS011;2295;51.050;14.608;2023-08-21T06:15:44;39.50;;;24.67;;
4565;SDS011;2295;51.050;14.608;2023-08-21T06:18:12;33.90;;;23.90;;
4565;SDS011;2295;51.050;14.608;2023-08-21T06:20:41;31.13;;;22.43;;
4565;SDS011;2295;51.050;14.608;2023-08-21T06:23:10;31.87;;;21.67;;
4565;SDS011;2295;51.050;14.608;2023-08-21T06:25:39;30.30;;;21.83;;
4565;SDS011;2295;51.050;14.608;2023-08-21T06:28:07;31.37;;;22.03;;
4565;SDS011;2295;51.050;14.608;2023-08-21T06:30:35;32.30;;;20.53;;
4565;SDS011;2295;51.050;14.608;2023-08-21T06:33:05;36.87;;;20.70;;
4565;SDS011;2295;51.050;14.608;2023-08-21T06:35:35;32.30;;;21.40;;
4565;SDS011;2295;51.050;14.608;2023-08-21T06:38:04;25.90;;;19.57;;
4565;SDS011;2295;51.050;14.608;2023-08-21T06:40:33;26.50;;;18.27;;
4565;SDS011;2295;51.050;14.608;2023-08-21T06:43:01;24.57;;;19.50;;
4565;SDS011;2295;51.050;14.608;2023-08-21T06:45:32;31.30;;;19.00;;
4565;SDS011;2295;51.050;14.608;2023-08-21T06:48:00;26.37;;;18.13;;
4565;SDS011;2295;51.050;14.608;2023-08-21T06:50:31;27.10;;;18.40;;
4565;SDS011;2295;51.050;14.608;2023-08-21T06:52:59;26.50;;;17.60;;
4565;SDS011;2295;51.050;14.608;2023-08-21T06:55:27;20.50;;;17.77;;
4565;SDS011;2295;51.050;14.608;2023-08-21T06:57:55;26.30;;;17.97;;
4565;SDS011;2295;51.050;14.608;2023-08-21T07:00:24;28.20;;;19.20;;
4565;SDS011;2295;51.050;14.608;2023-08-21T07:02:52;28.07;;;20.37;;
4565;SDS011;2295;51.050;14.608;2023-08-21T07:05:21;25.70;;;19.73;;
4565;SDS011;2295;51.050;14.608;2023-08-21T07:07:51;31.30;;;17.43;;
4565;SDS011;2295;51.050;14.608;2023-08-21T07:10:19;17.27;;;15.37;;
4565;SDS011;2295;51.050;14.608;2023-08-21T07:12:48;23.60;;;16.63;;
4565;SDS011;2295;51.050;14.608;2023-08-21T07:15:16;19.40;;;16.83;;
4565;SDS011;2295;51.050;14.608;2023-08-21T07:17:45;22.93;;;17.07;;
4565;SDS011;2295;51.050;14.608;2023-08-21T07:20:13;26.23;;;15.87;;
4565;SDS011;2295;51.050;14.608;2023-08-21T07:22:41;20.93;;;16.53;;
4565;SDS011;2295;51.050;14.608;2023-08-21T07:25:11;21.47;;;16.40;;
4565;SDS011;2295;51.050;14.608;2023-08-21T07:27:39;17.33;;;15.33;;
4565;SDS011;2295;51.050;14.608;2023-08-21T07:30:08;16.10;;;14.50;;
4565;SDS011;2295;51.050;14.608;2023-08-21T07:32:37;17.60;;;14.20;;
4565;SDS011;2295;51.050;14.608;2023-08-21T07:35:06;15.83;;;14.10;;
4565;SDS011;2295;51.050;14.608;2023-08-21T07:37:35;17.53;;;13.97;;
4565;SDS011;2295;51.050;14.608;2023-08-21T07:40:04;14.87;;;13.30;;
4565;SDS011;2295;51.050;14.608;2023-08-21T07:42:34;14.90;;;13.17;;
4565;SDS011;2295;51.050;14.608;2023-08-21T07:45:03;15.80;;;13.30;;
4565;SDS011;2295;51.050;14.608;2023-08-21T07:47:33;18.40;;;12.40;;
4565;SDS011;2295;51.050;14.608;2023-08-21T07:50:03;13.30;;;11.83;;
4565;SDS011;2295;51.050;14.608;2023-08-21T07:52:33;12.97;;;10.63;;
4565;SDS011;2295;51.050;14.608;2023-08-21T07:55:04;14.17;;;12.80;;
4565;SDS011;2295;51.050;14.608;2023-08-21T07:57:32;14.37;;;12.90;;
4565;SDS011;2295;51.050;14.608;2023-08-21T08:00:02;15.23;;;12.80;;
4565;SDS011;2295;51.050;14.608;2023-08-21T08:02:34;17.77;;;12.10;;
4565;SDS011;2295;51.050;14.608;2023-08-21T08:05:03;11.97;;;10.73;;
4565;SDS011;2295;51.050;14.608;2023-08-21T08:07:32;15.83;;;10.90;;
4565;SDS011;2295;51.050;14.608;2023-08-21T08:10:01;11.73;;;10.73;;
4565;SDS011;2295;51.050;14.608;2023-08-21T08:12:30;13.10;;;11.80;;
4565;SDS011;2295;51.050;14.608;2023-08-21T08:15:01;10.47;;;9.53;;
4565;SDS011;2295;51.050;14.608;2023-08-21T08:17:29;11.70;;;10.57;;
4565;SDS011;2295;51.050;14.608;2023-08-21T08:19:57;10.73;;;9.83;;
4565;SDS011;2295;51.050;14.608;2023-08-21T08:22:26;11.97;;;10.77;;
4565;SDS011;2295;51.050;14.608;2023-08-21T08:24:54;13.97;;;10.57;;
4565;SDS011;2295;51.050;14.608;2023-08-21T08:27:23;9.70;;;8.73;;
4565;SDS011;2295;51.050;14.608;2023-08-21T08:29:51;11.20;;;10.20;;
4565;SDS011;2295;51.050;14.608;2023-08-21T08:32:20;10.80;;;9.80;;
4565;SDS011;2295;51.050;14.608;2023-08-21T08:34:49;12.27;;;11.17;;
4565;SDS011;2295;51.050;14.608;2023-08-21T08:37:17;12.77;;;11.47;;
4565;SDS011;2295;51.050;14.608;2023-08-21T08:39:45;11.43;;;10.30;;
4565;SDS011;2295;51.050;14.608;2023-08-21T08:42:14;11.43;;;10.37;;
4565;SDS011;2295;51.050;14.608;2023-08-21T08:44:43;12.70;;;11.20;;
4565;SDS011;2295;51.050;14.608;2023-08-21T08:47:11;13.27;;;11.97;;
4565;SDS011;2295;51.050;14.608;2023-08-21T08:49:41;11.70;;;10.60;;
4565;SDS011;2295;51.050;14.608;2023-08-21T08:52:09;13.87;;;12.47;;
4565;SDS011;2295;51.050;14.608;2023-08-21T08:54:38;12.93;;;11.73;;
4565;SDS011;2295;51.050;14.608;2023-08-21T08:57:07;13.50;;;12.30;;
4565;SDS011;2295;51.050;14.608;2023-08-21T08:59:35;17.50;;;15.57;;
4565;SDS011;2295;51.050;14.608;2023-08-21T09:02:03;21.30;;;12.90;;
4565;SDS011;2295;51.050;14.608;2023-08-21T09:04:32;15.73;;;12.30;;
4565;SDS011;2295;51.050;14.608;2023-08-21T09:07:08;14.40;;;12.10;;
4565;SDS011;2295;51.050;14.608;2023-08-21T09:09:40;12.60;;;11.40;;
4565;SDS011;2295;51.050;14.608;2023-08-21T09:12:13;13.30;;;12.00;;
4565;SDS011;2295;51.050;14.608;2023-08-21T09:14:42;15.77;;;12.17;;
4565;SDS011;2295;51.050;14.608;2023-08-21T09:17:11;12.27;;;11.17;;
4565;SDS011;2295;51.050;14.608;2023-08-21T09:19:41;10.73;;;9.83;;
4565;SDS011;2295;51.050;14.608;2023-08-21T09:22:11;12.87;;;10.50;;
4565;SDS011;2295;51.050;14.608;2023-08-21T09:27:31;9.60;;;8.50;;
4565;SDS011;2295;51.050;14.608;2023-08-21T09:30:00;8.50;;;7.30;;
4565;SDS011;2295;51.050;14.608;2023-08-21T09:32:30;8.87;;;8.17;;
4565;SDS011;2295;51.050;14.608;2023-08-21T09:34:58;9.70;;;7.30;;
4565;SDS011;2295;51.050;14.608;2023-08-21T09:37:29;7.30;;;6.80;;
4565;SDS011;2295;51.050;14.608;2023-08-21T09:40:00;10.37;;;6.57;;
4565;SDS011;2295;51.050;14.608;2023-08-21T09:42:33;7.53;;;6.03;;
4565;SDS011;2295;51.050;14.608;2023-08-21T09:45:02;7.13;;;5.97;;
4565;SDS011;2295;51.050;14.608;2023-08-21T09:47:31;6.20;;;5.80;;
4565;SDS011;2295;51.050;14.608;2023-08-21T09:50:00;6.07;;;5.47;;
4565;SDS011;2295;51.050;14.608;2023-08-21T09:52:30;6.83;;;6.20;;
4565;SDS011;2295;51.050;14.608;2023-08-21T09:54:59;7.00;;;6.37;;
4565;SDS011;2295;51.050;14.608;2023-08-21T09:57:32;8.53;;;6.00;;
4565;SDS011;2295;51.050;14.608;2023-08-21T10:00:01;6.53;;;6.13;;
4565;SDS011;2295;51.050;14.608;2023-08-21T10:02:41;7.40;;;5.93;;
4565;SDS011;2295;51.050;14.608;2023-08-21T10:05:13;5.30;;;4.90;;
4565;SDS011;2295;51.050;14.608;2023-08-21T10:07:45;4.13;;;3.83;;
4565;SDS011;2295;51.050;14.608;2023-08-21T10:10:17;7.97;;;4.23;;
4565;SDS011;2295;51.050;14.608;2023-08-21T10:12:45;6.10;;;5.70;;
4565;SDS011;2295;51.050;14.608;2023-08-21T10:15:15;6.70;;;6.03;;
4565;SDS011;2295;51.050;14.608;2023-08-21T10:17:44;6.20;;;5.90;;
4565;SDS011;2295;51.050;14.608;2023-08-21T10:20:12;5.87;;;5.57;;
4565;SDS011;2295;51.050;14.608;2023-08-21T10:22:50;5.10;;;4.80;;
4565;SDS011;2295;51.050;14.608;2023-08-21T10:25:22;5.00;;;4.60;;
4565;SDS011;2295;51.050;14.608;2023-08-21T10:27:57;5.13;;;4.83;;
4565;SDS011;2295;51.050;14.608;2023-08-21T10:30:29;5.50;;;5.00;;
4565;SDS011;2295;51.050;14.608;2023-08-21T10:32:58;5.00;;;4.70;;
4565;SDS011;2295;51.050;14.608;2023-08-21T10:35:28;8.33;;;4.50;;
4565;SDS011;2295;51.050;14.608;2023-08-21T10:38:08;5.53;;;5.17;;
4565;SDS011;2295;51.050;14.608;2023-08-21T10:40:38;4.50;;;4.10;;
4565;SDS011;2295;51.050;14.608;2023-08-21T10:46:09;10.60;;;5.30;;
4565;SDS011;2295;51.050;14.608;2023-08-21T10:48:39;4.90;;;4.70;;
4565;SDS011;2295;51.050;14.608;2023-08-21T10:51:07;4.37;;;4.13;;
4565;SDS011;2295;51.050;14.608;2023-08-21T10:53:37;4.93;;;4.53;;
4565;SDS011;2295;51.050;14.608;2023-08-21T10:56:07;4.80;;;4.50;;
4565;SDS011;2295;51.050;14.608;2023-08-21T10:58:37;4.00;;;3.80;;
4565;SDS011;2295;51.050;14.608;2023-08-21T11:01:08;4.00;;;3.70;;
4565;SDS011;2295;51.050;14.608;2023-08-21T11:03:38;7.20;;;4.00;;
4565;SDS011;2295;51.050;14.608;2023-08-21T11:06:08;4.63;;;4.40;;
4565;SDS011;2295;51.050;14.608;2023-08-21T11:08:38;3.83;;;3.60;;
4565;SDS011;2295;51.050;14.608;2023-08-21T11:11:06;6.60;;;5.70;;
4565;SDS011;2295;51.050;14.608;2023-08-21T11:13:37;5.87;;;5.47;;
4565;SDS011;2295;51.050;14.608;2023-08-21T11:16:06;6.53;;;6.03;;
4565;SDS011;2295;51.050;14.608;2023-08-21T11:18:35;5.40;;;5.10;;
4565;SDS011;2295;51.050;14.608;2023-08-21T11:21:05;4.83;;;4.57;;
4565;SDS011;2295;51.050;14.608;2023-08-21T11:23:35;5.17;;;4.77;;
4565;SDS011;2295;51.050;14.608;2023-08-21T11:26:06;4.90;;;4.40;;
4565;SDS011;2295;51.050;14.608;2023-08-21T11:28:47;3.80;;;3.60;;
4565;SDS011;2295;51.050;14.608;2023-08-21T11:31:15;4.53;;;3.80;;
4565;SDS011;2295;51.050;14.608;2023-08-21T11:33:48;4.70;;;4.33;;
4565;SDS011;2295;51.050;14.608;2023-08-21T11:36:18;5.23;;;4.90;;
4565;SDS011;2295;51.050;14.608;2023-08-21T11:38:57;4.50;;;4.30;;
4565;SDS011;2295;51.050;14.608;2023-08-21T11:41:28;4.10;;;3.80;;
4565;SDS011;2295;51.050;14.608;2023-08-21T11:44:01;3.80;;;3.63;;
4565;SDS011;2295;51.050;14.608;2023-08-21T11:46:30;4.63;;;4.07;;
4565;SDS011;2295;51.050;14.608;2023-08-21T11:48:58;8.43;;;4.00;;
4565;SDS011;2295;51.050;14.608;2023-08-21T11:51:29;3.97;;;3.77;;
4565;SDS011;2295;51.050;14.608;2023-08-21T11:54:04;5.37;;;3.40;;
4565;SDS011;2295;51.050;14.608;2023-08-21T11:56:35;4.20;;;3.90;;
4565;SDS011;2295;51.050;14.608;2023-08-21T11:59:05;3.80;;;3.60;;
4565;SDS011;2295;51.050;14.608;2023-08-21T12:01:34;5.90;;;4.27;;
4565;SDS011;2295;51.050;14.608;2023-08-21T12:04:13;4.17;;;3.87;;
4565;SDS011;2295;51.050;14.608;2023-08-21T12:06:43;4.10;;;3.90;;
4565;SDS011;2295;51.050;14.608;2023-08-21T12:09:12;4.83;;;4.53;;
4565;SDS011;2295;51.050;14.608;2023-08-21T12:11:42;4.73;;;4.33;;
4565;SDS011;2295;51.050;14.608;2023-08-21T12:14:10;5.97;;;4.90;;
4565;SDS011;2295;51.050;14.608;2023-08-21T12:16:38;6.63;;;5.30;;
4565;SDS011;2295;51.050;14.608;2023-08-21T12:19:06;5.93;;;5.03;;
4565;SDS011;2295;51.050;14.608;2023-08-21T12:21:35;5.23;;;4.93;;
4565;SDS011;2295;51.050;14.608;2023-08-21T12:24:04;6.20;;;4.97;;
4565;SDS011;2295;51.050;14.608;2023-08-21T12:26:33;5.27;;;4.87;;
4565;SDS011;2295;51.050;14.608;2023-08-21T12:29:16;4.60;;;4.30;;
4565;SDS011;2295;51.050;14.608;2023-08-21T12:31:45;6.70;;;4.33;;
4565;SDS011;2295;51.050;14.608;2023-08-21T12:34:14;4.90;;;4.60;;
4565;SDS011;2295;51.050;14.608;2023-08-21T12:36:42;4.13;;;3.87;;
4565;SDS011;2295;51.050;14.608;2023-08-21T12:39:10;5.20;;;4.87;;
4565;SDS011;2295;51.050;14.608;2023-08-21T12:41:40;4.43;;;3.90;;
4565;SDS011;2295;51.050;14.608;2023-08-21T12:44:08;11.07;;;9.97;;
4565;SDS011;2295;51.050;14.608;2023-08-21T12:46:38;5.00;;;4.70;;
4565;SDS011;2295;51.050;14.608;2023-08-21T12:49:06;4.03;;;3.83;;
4565;SDS011;2295;51.050;14.608;2023-08-21T12:51:35;4.50;;;4.10;;
4565;SDS011;2295;51.050;14.608;2023-08-21T12:54:03;4.00;;;3.80;;
4565;SDS011;2295;51.050;14.608;2023-08-21T12:56:32;4.00;;;3.80;;
4565;SDS011;2295;51.050;14.608;2023-08-21T12:59:00;5.30;;;4.60;;
4565;SDS011;2295;51.050;14.608;2023-08-21T13:01:30;4.87;;;4.40;;
4565;SDS011;2295;51.050;14.608;2023-08-21T13:04:02;4.57;;;3.90;;
4565;SDS011;2295;51.050;14.608;2023-08-21T13:06:30;5.00;;;4.63;;
4565;SDS011;2295;51.050;14.608;2023-08-21T13:08:59;5.57;;;4.70;;
4565;SDS011;2295;51.050;14.608;2023-08-21T13:11:33;5.13;;;4.63;;
4565;SDS011;2295;51.050;14.608;2023-08-21T13:14:01;5.27;;;4.87;;
4565;SDS011;2295;51.050;14.608;2023-08-21T13:16:29;5.50;;;5.00;;
4565;SDS011;2295;51.050;14.608;2023-08-21T13:18:58;5.43;;;5.03;;
4565;SDS011;2295;51.050;14.608;2023-08-21T13:21:27;7.37;;;6.00;;
4565;SDS011;2295;51.050;14.608;2023-08-21T13:23:56;5.13;;;4.83;;
4565;SDS011;2295;51.050;14.608;2023-08-21T13:26:28;6.30;;;5.80;;
4565;SDS011;2295;51.050;14.608;2023-08-21T13:28:57;7.00;;;5.97;;
4565;SDS011;2295;51.050;14.608;2023-08-21T13:31:26;6.80;;;6.17;;
4565;SDS011;2295;51.050;14.608;2023-08-21T13:33:55;6.20;;;5.60;;
4565;SDS011;2295;51.050;14.608;2023-08-21T13:36:23;7.30;;;6.00;;
4565;SDS011;2295;51.050;14.608;2023-08-21T13:38:56;6.77;;;6.20;;
4565;SDS011;2295;51.050;14.608;2023-08-21T13:41:25;12.30;;;6.30;;
4565;SDS011;2295;51.050;14.608;2023-08-21T13:43:54;7.50;;;6.90;;
4565;SDS011;2295;51.050;14.608;2023-08-21T13:46:25;7.30;;;6.40;;
4565;SDS011;2295;51.050;14.608;2023-08-21T13:48:53;7.90;;;6.50;;
4565;SDS011;2295;51.050;14.608;2023-08-21T13:51:22;6.80;;;6.17;;
4565;SDS011;2295;51.050;14.608;2023-08-21T13:53:50;7.10;;;6.50;;
4565;SDS011;2295;51.050;14.608;2023-08-21T13:56:20;7.00;;;6.33;;
4565;SDS011;2295;51.050;14.608;2023-08-21T13:58:48;7.40;;;6.73;;
4565;SDS011;2295;51.050;14.608;2023-08-21T14:01:16;6.97;;;6.20;;
4565;SDS011;2295;51.050;14.608;2023-08-21T14:03:45;7.73;;;6.13;;
4565;SDS011;2295;51.050;14.608;2023-08-21T14:06:14;7.07;;;6.30;;
4565;SDS011;2295;51.050;14.608;2023-08-21T14:08:42;8.10;;;6.80;;
4565;SDS011;2295;51.050;14.608;2023-08-21T14:11:11;6.63;;;6.13;;
4565;SDS011;2295;51.050;14.608;2023-08-21T14:13:41;6.43;;;5.90;;
4565;SDS011;2295;51.050;14.608;2023-08-21T14:16:09;7.13;;;6.60;;
4565;SDS011;2295;51.050;14.608;2023-08-21T14:18:38;8.97;;;6.70;;
4565;SDS011;2295;51.050;14.608;2023-08-21T14:21:09;12.40;;;6.73;;
4565;SDS011;2295;51.050;14.608;2023-08-21T14:23:37;9.07;;;6.50;;
4565;SDS011;2295;51.050;14.608;2023-08-21T14:26:06;7.43;;;6.90;;
4565;SDS011;2295;51.050;14.608;2023-08-21T14:28:35;9.47;;;6.37;;
4565;SDS011;2295;51.050;14.608;2023-08-21T14:31:05;7.57;;;6.17;;
4565;SDS011;2295;51.050;14.608;2023-08-21T14:33:33;7.67;;;6.83;;
4565;SDS011;2295;51.050;14.608;2023-08-21T14:36:01;7.77;;;7.07;;
4565;SDS011;2295;51.050;14.608;2023-08-21T14:38:35;7.37;;;6.83;;
4565;SDS011;2295;51.050;14.608;2023-08-21T14:41:04;7.23;;;6.53;;
4565;SDS011;2295;51.050;14.608;2023-08-21T14:43:32;7.23;;;6.73;;
4565;SDS011;2295;51.050;14.608;2023-08-21T14:46:00;7.57;;;6.80;;
4565;SDS011;2295;51.050;14.608;2023-08-21T14:48:32;11.73;;;7.97;;
4565;SDS011;2295;51.050;14.608;2023-08-21T14:51:03;9.30;;;8.50;;
4565;SDS011;2295;51.050;14.608;2023-08-21T14:53:32;10.00;;;8.40;;
4565;SDS011;2295;51.050;14.608;2023-08-21T14:56:00;12.23;;;8.30;;
4565;SDS011;2295;51.050;14.608;2023-08-21T14:58:30;9.30;;;8.50;;
4565;SDS011;2295;51.050;14.608;2023-08-21T15:00:58;8.17;;;7.40;;
4565;SDS011;2295;51.050;14.608;2023-08-21T15:03:27;7.60;;;6.90;;
4565;SDS011;2295;51.050;14.608;2023-08-21T15:05:56;8.13;;;7.40;;
4565;SDS011;2295;51.050;14.608;2023-08-21T15:08:25;7.20;;;6.50;;